Time;durP1;ratioP1;P1;durP2;ratioP2;P2;SDS_P1;SDS_P2;PMS_P1;PMS_P2;Temp;Humidity;BMP_temperature;BMP_pressure;BME280_temperature;BME280_humidity;BME280_pressure;Samples;Min_cycle;Max_cycle;Signal;HPM_P1;HPM_P2
2021/08/19 04:00:20;;;;;;;3.10;2.90;;;18.00;99.90;;;;;;6032926;23;20429;-65
2021/08/19 04:02:47;;;;;;;3.90;2.60;;;18.00;99.90;;;;;;4977128;28;20821;-65
2021/08/19 04:05:14;;;;;;;2.90;2.67;;;17.90;99.90;;;;;;4977238;28;20461;-65
2021/08/19 04:07:41;;;;;;;3.27;3.07;;;17.90;99.90;;;;;;4977237;28;20458;-65
2021/08/19 04:10:09;;;;;;;3.07;2.90;;;17.90;99.90;;;;;;4976751;28;20989;-65
2021/08/19 04:12:35;;;;;;;2.87;2.77;;;17.90;99.90;;;;;;4957815;28;20463;-65
2021/08/19 04:15:03;;;;;;;2.90;2.70;;;17.90;99.90;;;;;;4957736;29;20609;-65
2021/08/19 04:17:31;;;;;;;3.00;2.80;;;17.90;99.90;;;;;;4957865;29;20883;-65
2021/08/19 04:19:58;;;;;;;3.00;2.90;;;17.80;99.90;;;;;;4957749;29;20932;-65
2021/08/19 04:22:25;;;;;;;3.07;2.87;;;17.80;99.90;;;;;;4957446;28;20475;-65
2021/08/19 04:24:51;;;;;;;2.83;2.43;;;17.80;99.90;;;;;;4957483;29;20510;-65
2021/08/19 04:27:18;;;;;;;2.60;2.50;;;17.80;99.90;;;;;;4957737;29;20456;-65
2021/08/19 04:29:45;;;;;;;2.17;2.17;;;17.80;99.90;;;;;;4957461;29;20455;-65
2021/08/19 04:32:12;;;;;;;2.30;2.10;;;17.80;99.90;;;;;;4957311;28;20522;-65
2021/08/19 04:34:40;;;;;;;2.40;2.30;;;17.80;99.90;;;;;;4958086;29;20506;-65
2021/08/19 04:37:07;;;;;;;3.07;2.40;;;17.80;99.90;;;;;;4957228;29;20515;-65
2021/08/19 04:39:34;;;;;;;2.37;2.27;;;17.80;99.90;;;;;;4956885;29;20961;-65
2021/08/19 04:42:00;;;;;;;3.73;3.03;;;17.80;99.90;;;;;;4956922;28;20467;-65
2021/08/19 04:44:27;;;;;;;4.50;2.43;;;17.80;99.90;;;;;;4957379;29;20478;-65
2021/08/19 04:46:54;;;;;;;2.60;2.50;;;17.90;99.90;;;;;;4957115;29;20452;-65
2021/08/19 04:49:20;;;;;;;2.43;2.20;;;17.90;99.90;;;;;;4956609;29;20456;-65
2021/08/19 04:51:49;;;;;;;2.80;2.60;;;18.00;99.90;;;;;;4956874;28;20483;-66
2021/08/19 04:54:15;;;;;;;2.47;2.37;;;18.00;99.90;;;;;;4957271;29;20459;-66
2021/08/19 04:56:42;;;;;;;3.30;2.20;;;18.00;99.90;;;;;;4957413;29;20551;-66
2021/08/19 04:59:10;;;;;;;2.17;2.07;;;18.10;99.90;;;;;;4956830;29;20460;-65
2021/08/19 05:01:38;;;;;;;2.13;2.03;;;18.20;99.90;;;;;;4956778;28;20494;-66
2021/08/19 05:04:05;;;;;;;2.30;2.20;;;18.30;99.90;;;;;;4956836;28;20452;-65
2021/08/19 05:06:33;;;;;;;2.30;2.20;;;18.40;99.90;;;;;;4956363;28;20455;-66
2021/08/19 05:09:04;;;;;;;3.10;2.00;;;18.50;99.90;;;;;;4956623;28;20532;-66
2021/08/19 05:11:30;;;;;;;2.00;1.90;;;18.60;99.90;;;;;;4956471;28;20492;-64
2021/08/19 05:13:59;;;;;;;3.70;2.00;;;18.60;99.90;;;;;;4956093;29;20943;-65
2021/08/19 05:16:26;;;;;;;3.43;2.20;;;18.70;99.90;;;;;;4955989;29;20991;-65
2021/08/19 05:18:52;;;;;;;2.20;2.10;;;18.70;99.90;;;;;;4956667;29;20459;-65
2021/08/19 05:21:19;;;;;;;2.60;2.50;;;18.70;99.90;;;;;;4956572;28;20478;-64
2021/08/19 05:23:46;;;;;;;2.57;2.10;;;18.80;99.90;;;;;;4956772;29;20455;-66
2021/08/19 05:26:14;;;;;;;1.87;1.83;;;18.80;99.90;;;;;;4956630;29;20459;-63
2021/08/19 05:28:41;;;;;;;2.47;2.30;;;18.90;99.90;;;;;;4956194;29;20943;-63
2021/08/19 05:31:08;;;;;;;2.60;2.40;;;18.90;99.90;;;;;;4956041;28;20498;-65
2021/08/19 05:33:35;;;;;;;3.60;2.17;;;18.90;99.90;;;;;;4956136;29;20979;-64
2021/08/19 05:36:02;;;;;;;2.83;2.20;;;18.90;99.90;;;;;;4956524;29;20819;-64
2021/08/19 05:38:29;;;;;;;2.40;2.30;;;18.90;99.90;;;;;;4957043;29;20460;-64
2021/08/19 05:40:55;;;;;;;4.17;2.40;;;18.90;99.90;;;;;;4956100;28;20482;-64
2021/08/19 05:43:23;;;;;;;2.23;2.13;;;18.90;99.90;;;;;;4955849;29;20466;-64
2021/08/19 05:45:50;;;;;;;3.87;2.77;;;18.90;99.90;;;;;;4956478;29;20852;-64
2021/08/19 05:48:17;;;;;;;3.17;2.87;;;18.90;99.90;;;;;;4956266;29;20858;-64
2021/08/19 05:50:43;;;;;;;2.70;2.50;;;18.90;99.90;;;;;;4956186;28;20484;-64
2021/08/19 05:53:10;;;;;;;3.70;3.50;;;18.90;99.90;;;;;;4974518;29;20451;-64
2021/08/19 05:55:37;;;;;;;2.87;2.63;;;18.90;99.90;;;;;;4964095;29;20460;-64
2021/08/19 05:58:03;;;;;;;2.83;2.60;;;19.00;99.90;;;;;;4956241;29;20938;-63
2021/08/19 06:00:31;;;;;;;2.83;2.63;;;19.00;99.90;;;;;;4956115;28;22330;-63
2021/08/19 06:02:58;;;;;;;2.87;2.73;;;19.10;99.90;;;;;;4956621;29;20467;-64
2021/08/19 06:05:25;;;;;;;2.83;2.67;;;19.10;99.90;;;;;;4955893;29;20460;-64
2021/08/19 06:07:51;;;;;;;3.10;2.77;;;19.20;99.90;;;;;;4956188;29;20823;-64
2021/08/19 06:10:18;;;;;;;3.30;3.00;;;19.20;99.90;;;;;;4956002;28;20467;-63
2021/08/19 06:12:45;;;;;;;3.33;3.03;;;19.30;99.90;;;;;;4956113;29;20483;-64
2021/08/19 06:15:12;;;;;;;3.13;2.23;;;19.20;99.90;;;;;;4955979;29;20463;-64
2021/08/19 06:17:40;;;;;;;3.03;2.83;;;19.10;99.90;;;;;;4958523;28;20466;-64
2021/08/19 06:20:08;;;;;;;2.77;2.57;;;19.20;99.90;;;;;;4959856;29;20466;-64
2021/08/19 06:22:34;;;;;;;2.50;2.40;;;19.40;99.90;;;;;;4959500;28;20503;-65
2021/08/19 06:25:01;;;;;;;2.97;2.83;;;19.60;99.90;;;;;;4960145;29;20455;-66
2021/08/19 06:27:28;;;;;;;2.70;2.60;;;19.70;99.90;;;;;;4959563;29;20455;-65
2021/08/19 06:29:54;;;;;;;2.60;2.50;;;19.70;99.90;;;;;;4959604;29;20459;-65
2021/08/19 06:32:21;;;;;;;2.37;2.17;;;19.80;99.90;;;;;;4958960;28;20993;-65
2021/08/19 06:34:49;;;;;;;3.83;3.63;;;20.00;99.90;;;;;;4960102;29;20455;-65
2021/08/19 06:37:16;;;;;;;2.70;2.50;;;20.10;99.90;;;;;;4959683;29;20455;-65
2021/08/19 06:39:43;;;;;;;2.43;2.23;;;20.30;99.90;;;;;;4959683;29;20462;-65
2021/08/19 06:42:09;;;;;;;2.40;2.30;;;20.40;99.90;;;;;;4959570;28;20498;-66
2021/08/19 06:44:36;;;;;;;3.33;3.13;;;20.60;99.90;;;;;;4960356;29;20463;-66
2021/08/19 06:47:03;;;;;;;2.93;2.73;;;20.60;99.90;;;;;;4959313;29;20462;-65
2021/08/19 06:49:30;;;;;;;3.40;2.80;;;20.60;99.90;;;;;;4959618;29;20459;-65
2021/08/19 06:51:58;;;;;;;5.37;2.60;;;20.40;99.90;;;;;;4959241;28;20486;-65
2021/08/19 06:54:25;;;;;;;2.57;2.47;;;20.50;99.90;;;;;;4959160;29;20459;-65
2021/08/19 06:56:51;;;;;;;3.57;3.23;;;20.60;99.90;;;;;;4959826;29;20465;-65
2021/08/19 06:59:18;;;;;;;3.27;3.10;;;20.50;99.90;;;;;;4959612;29;20452;-65
2021/08/19 07:01:45;;;;;;;3.27;3.07;;;20.50;99.90;;;;;;4959015;28;20483;-66
2021/08/19 07:04:11;;;;;;;3.37;3.07;;;20.60;99.90;;;;;;4959357;29;20455;-65
2021/08/19 07:06:38;;;;;;;4.10;3.37;;;20.50;99.90;;;;;;4959119;29;20459;-65
2021/08/19 07:09:06;;;;;;;4.20;3.23;;;20.60;99.90;;;;;;4958891;29;20455;-65
2021/08/19 07:11:33;;;;;;;2.90;2.70;;;20.70;99.90;;;;;;4958876;28;20841;-65
2021/08/19 07:14:00;;;;;;;3.53;3.33;;;20.70;99.90;;;;;;4958378;29;20463;-64
2021/08/19 07:16:26;;;;;;;4.17;3.07;;;20.80;99.90;;;;;;4958615;29;20790;-65
2021/08/19 07:18:53;;;;;;;3.10;2.90;;;20.80;99.90;;;;;;4958907;29;20459;-65
2021/08/19 07:21:20;;;;;;;3.37;3.17;;;21.00;99.90;;;;;;4959109;28;20476;-67
2021/08/19 07:23:46;;;;;;;3.20;3.00;;;21.10;99.90;;;;;;4959286;29;20542;-64
2021/08/19 07:26:14;;;;;;;3.80;2.63;;;21.10;99.90;;;;;;4959612;29;20455;-65
2021/08/19 07:28:41;;;;;;;2.70;2.60;;;21.00;99.90;;;;;;4957800;28;20840;-65
2021/08/19 07:31:08;;;;;;;3.10;3.00;;;21.10;99.90;;;;;;4958452;28;20479;-64
2021/08/19 07:33:35;;;;;;;2.83;2.73;;;21.10;99.90;;;;;;4958279;29;20954;-64
2021/08/19 07:36:01;;;;;;;3.00;2.70;;;21.20;99.90;;;;;;4958181;29;20462;-64
2021/08/19 07:38:28;;;;;;;3.70;2.43;;;21.30;99.90;;;;;;4958282;29;20460;-64
2021/08/19 07:40:55;;;;;;;2.83;2.60;;;21.40;99.90;;;;;;4958185;28;20502;-64
2021/08/19 07:43:23;;;;;;;2.70;2.57;;;21.40;99.90;;;;;;4958425;29;20858;-65
2021/08/19 07:45:50;;;;;;;2.60;2.50;;;21.40;99.90;;;;;;4958230;29;20467;-64
2021/08/19 07:48:17;;;;;;;2.33;2.20;;;21.50;99.90;;;;;;4957703;29;20555;-64
2021/08/19 07:50:44;;;;;;;2.53;2.33;;;21.50;99.90;;;;;;4958438;28;20506;-64
2021/08/19 07:53:13;;;;;;;2.53;2.43;;;21.60;99.90;;;;;;4957633;29;20479;-65
2021/08/19 07:55:39;;;;;;;3.23;2.87;;;21.60;99.90;;;;;;4958700;29;20455;-64
2021/08/19 07:58:06;;;;;;;2.27;2.17;;;21.70;99.90;;;;;;4957942;29;20492;-65
2021/08/19 08:00:36;;;;;;;2.10;2.00;;;21.70;99.90;;;;;;4958690;28;20897;-64
2021/08/19 08:03:03;;;;;;;1.87;1.87;;;21.70;99.90;;;;;;4957954;29;20440;-64
2021/08/19 08:05:31;;;;;;;2.30;2.20;;;21.70;99.90;;;;;;4957779;29;20459;-65
2021/08/19 08:08:03;;;;;;;2.43;2.23;;;21.70;99.90;;;;;;4957925;29;20455;-64
2021/08/19 08:10:31;;;;;;;2.30;2.20;;;21.80;99.90;;;;;;4957735;28;20520;-64
2021/08/19 08:12:58;;;;;;;2.40;2.20;;;21.80;99.90;;;;;;4957432;29;20515;-64
2021/08/19 08:15:25;;;;;;;2.43;2.30;;;21.70;99.90;;;;;;4957057;29;20507;-65
2021/08/19 08:17:53;;;;;;;2.93;1.90;;;21.70;99.90;;;;;;4957354;29;20460;-64
2021/08/19 08:20:20;;;;;;;2.33;2.13;;;21.70;99.90;;;;;;4957565;28;20466;-64
2021/08/19 08:22:50;;;;;;;4.20;1.90;;;21.70;99.90;;;;;;4957546;29;20521;-65
2021/08/19 08:25:17;;;;;;;1.93;1.83;;;21.80;99.90;;;;;;4957437;29;20455;-64
2021/08/19 08:27:53;;;;;;;2.23;2.03;;;21.90;99.90;;;;;;4957327;29;20938;-65
2021/08/19 08:30:20;;;;;;;2.37;2.17;;;22.00;99.90;;;;;;4957483;28;20443;-64
2021/08/19 08:32:47;;;;;;;2.40;2.30;;;22.10;99.90;;;;;;4957736;29;20472;-65
2021/08/19 08:35:15;;;;;;;2.47;2.37;;;22.20;99.90;;;;;;4957508;29;20459;-65
2021/08/19 08:37:42;;;;;;;2.70;2.40;;;22.20;99.90;;;;;;4972280;29;20455;-65
2021/08/19 08:40:12;;;;;;;2.70;2.50;;;22.10;99.90;;;;;;4969520;28;20448;-64
2021/08/19 08:42:40;;;;;;;2.40;2.20;;;22.20;99.90;;;;;;4957540;29;20439;-64
2021/08/19 08:45:07;;;;;;;2.23;2.07;;;22.30;99.90;;;;;;4957076;29;20459;-64
2021/08/19 08:47:35;;;;;;;3.00;2.40;;;22.40;99.90;;;;;;4956773;29;20797;-64
2021/08/19 08:50:02;;;;;;;2.87;2.67;;;22.70;99.90;;;;;;4957277;29;20455;-65
2021/08/19 08:52:33;;;;;;;2.53;2.40;;;23.00;99.90;;;;;;4957495;28;20487;-65
2021/08/19 08:54:59;;;;;;;2.47;2.30;;;23.20;99.90;;;;;;4957110;29;20455;-64
2021/08/19 08:57:27;;;;;;;2.40;2.13;;;23.40;99.90;;;;;;4957157;29;20460;-64
2021/08/19 08:59:55;;;;;;;2.23;1.90;;;23.70;99.90;;;;;;4956977;29;20974;-64
2021/08/19 09:02:21;;;;;;;5.03;2.33;;;23.90;99.90;;;;;;4956489;28;20479;-65
2021/08/19 09:04:48;;;;;;;2.17;1.97;;;24.10;99.90;;;;;;4956623;29;20822;-64
2021/08/19 09:07:14;;;;;;;2.00;1.90;;;24.20;99.90;;;;;;4956620;29;20482;-65
2021/08/19 09:09:43;;;;;;;2.40;1.90;;;24.10;99.90;;;;;;4956748;29;20573;-64
2021/08/19 09:12:10;;;;;;;2.07;1.97;;;24.30;99.90;;;;;;4956280;28;20983;-65
2021/08/19 09:14:40;;;;;;;2.73;1.70;;;24.60;99.90;;;;;;4956127;29;20463;-65
2021/08/19 09:17:07;;;;;;;1.80;1.80;;;24.90;99.90;;;;;;4956324;29;20442;-65
2021/08/19 09:19:35;;;;;;;2.00;1.90;;;25.10;99.90;;;;;;4956885;29;20460;-65
2021/08/19 09:22:04;;;;;;;2.23;2.03;;;25.00;99.90;;;;;;4956498;28;20879;-65
2021/08/19 09:24:32;;;;;;;2.00;1.90;;;25.10;99.90;;;;;;4956515;28;20817;-65
2021/08/19 09:27:12;;;;;;;1.67;1.57;;;24.90;99.90;;;;;;4956864;29;20451;-65
2021/08/19 09:29:38;;;;;;;1.50;1.50;;;24.60;99.90;;;;;;4956530;28;20443;-65
2021/08/19 09:32:10;;;;;;;1.80;1.70;;;24.30;99.90;;;;;;4956424;28;20492;-65
2021/08/19 09:34:38;;;;;;;1.80;1.70;;;24.10;99.90;;;;;;4956699;29;20451;-65
2021/08/19 09:37:11;;;;;;;1.60;1.50;;;24.00;99.90;;;;;;4956457;29;20467;-65
2021/08/19 09:39:39;;;;;;;1.60;1.50;;;24.10;99.90;;;;;;4956839;29;20444;-65
2021/08/19 09:42:07;;;;;;;2.93;1.20;;;24.00;99.90;;;;;;4956283;28;20826;-65
2021/08/19 09:44:37;;;;;;;1.00;1.00;;;24.10;99.90;;;;;;4956462;29;20455;-65
2021/08/19 09:47:05;;;;;;;3.43;1.30;;;24.30;99.90;;;;;;4957175;29;20804;-65
2021/08/19 09:49:35;;;;;;;1.30;1.30;;;24.60;99.90;;;;;;4956696;29;20459;-65
2021/08/19 09:52:07;;;;;;;1.40;1.30;;;24.80;99.90;;;;;;4955319;28;20484;-65
2021/08/19 09:54:35;;;;;;;1.30;1.20;;;25.30;99.90;;;;;;4956047;28;20459;-67
2021/08/19 09:57:02;;;;;;;1.53;1.30;;;25.70;99.90;;;;;;4956520;29;20456;-65
2021/08/19 09:59:34;;;;;;;1.87;1.50;;;26.10;99.90;;;;;;4956441;29;20467;-65
2021/08/19 10:02:03;;;;;;;1.03;1.03;;;26.70;99.90;;;;;;4956220;28;20487;-65
2021/08/19 10:04:30;;;;;;;1.53;1.43;;;27.00;99.90;;;;;;4956918;29;20456;-65
2021/08/19 10:06:58;;;;;;;1.40;1.30;;;27.10;99.90;;;;;;4956347;29;20462;-65
2021/08/19 10:09:25;;;;;;;1.33;1.23;;;27.30;99.90;;;;;;4956610;29;20459;-65
2021/08/19 10:11:54;;;;;;;2.10;1.90;;;27.10;99.90;;;;;;4956126;28;20479;-65
2021/08/19 10:14:22;;;;;;;1.80;1.70;;;26.90;99.90;;;;;;4956694;29;20462;-64
2021/08/19 10:16:49;;;;;;;2.93;1.60;;;26.80;99.90;;;;;;4956685;29;20456;-66
2021/08/19 10:19:24;;;;;;;2.10;2.00;;;26.50;99.90;;;;;;4956540;29;20854;-66
2021/08/19 10:21:55;;;;;;;1.67;1.57;;;26.30;99.90;;;;;;4956457;28;20479;-65
2021/08/19 10:24:29;;;;;;;3.03;1.50;;;25.90;99.90;;;;;;4957025;29;20444;-65
2021/08/19 10:27:10;;;;;;;2.13;2.03;;;25.80;99.90;;;;;;4955992;29;20450;-65
2021/08/19 10:29:48;;;;;;;3.23;1.57;;;25.60;99.90;;;;;;4956238;29;20454;-65
2021/08/19 10:32:27;;;;;;;2.57;2.03;;;25.50;99.90;;;;;;4956386;28;20484;-65
2021/08/19 10:34:57;;;;;;;1.50;1.40;;;25.40;99.90;;;;;;4956687;29;20441;-66
2021/08/19 10:38:00;;;;;;;1.70;1.60;;;25.20;99.90;;;;;;4956365;29;20466;-65
2021/08/19 10:40:34;;;;;;;2.03;1.83;;;25.00;99.90;;;;;;4956527;28;20459;-66
2021/08/19 10:43:42;;;;;;;3.40;1.80;;;24.80;99.90;;;;;;4956213;29;20472;-65
2021/08/19 10:46:11;;;;;;;2.40;1.60;;;24.70;99.90;;;;;;4956350;28;20462;-66
2021/08/19 10:48:47;;;;;;;2.13;1.93;;;24.60;99.90;;;;;;4956246;29;20459;-65
2021/08/19 10:51:15;;;;;;;1.90;1.70;;;24.20;99.90;;;;;;4956097;28;20485;-66
2021/08/19 10:53:42;;;;;;;2.10;2.00;;;24.00;99.90;;;;;;4955858;29;20486;-66
2021/08/19 10:56:08;;;;;;;2.03;1.93;;;24.00;99.90;;;;;;4956163;29;20455;-65
2021/08/19 10:58:37;;;;;;;1.90;1.80;;;23.90;99.90;;;;;;4956160;29;20537;-66
2021/08/19 11:01:25;;;;;;;2.00;1.90;;;23.70;99.90;;;;;;4955774;28;20483;-65
2021/08/19 11:03:53;;;;;;;1.87;1.70;;;23.40;99.90;;;;;;4958261;28;20436;-65
2021/08/19 11:06:22;;;;;;;2.30;2.20;;;23.40;99.90;;;;;;4959129;29;21042;-65
2021/08/19 11:08:52;;;;;;;1.80;1.70;;;23.50;99.90;;;;;;4958931;29;20932;-66
2021/08/19 11:11:28;;;;;;;2.13;2.03;;;23.50;99.90;;;;;;4959296;28;20479;-65
2021/08/19 11:14:10;;;;;;;3.40;1.90;;;23.70;99.90;;;;;;4959384;29;20470;-66
2021/08/19 11:16:39;;;;;;;2.20;2.10;;;23.80;99.90;;;;;;4959027;29;20982;-65
2021/08/19 11:19:15;;;;;;;2.33;2.20;;;23.90;99.90;;;;;;4958745;29;20952;-65
2021/08/19 11:21:42;;;;;;;3.73;2.23;;;23.90;99.90;;;;;;4959246;28;20507;-66
2021/08/19 11:24:09;;;;;;;3.70;2.00;;;24.10;99.90;;;;;;4959394;29;20451;-66
2021/08/19 11:26:36;;;;;;;4.17;2.20;;;24.10;99.90;;;;;;4959021;29;20495;-64
2021/08/19 11:29:03;;;;;;;1.83;1.83;;;23.90;99.90;;;;;;4959225;29;20456;-66
2021/08/19 11:31:30;;;;;;;2.00;1.90;;;23.90;99.90;;;;;;4958962;28;20475;-65
2021/08/19 11:34:03;;;;;;;1.73;1.70;;;23.90;99.90;;;;;;4959482;29;20488;-65
2021/08/19 11:36:30;;;;;;;2.10;2.00;;;23.70;99.90;;;;;;4958863;29;20455;-65
2021/08/19 11:38:59;;;;;;;2.27;2.17;;;23.40;99.90;;;;;;4959020;29;20460;-65
2021/08/19 11:41:26;;;;;;;2.07;1.97;;;23.50;99.90;;;;;;4958647;28;20479;-65
2021/08/19 11:43:59;;;;;;;2.10;2.00;;;23.60;99.90;;;;;;4958911;29;20950;-66
2021/08/19 11:46:27;;;;;;;1.80;1.70;;;23.70;99.90;;;;;;4959161;29;20451;-65
2021/08/19 11:48:55;;;;;;;1.90;1.80;;;23.80;99.90;;;;;;4966999;29;20459;-65
2021/08/19 11:51:30;;;;;;;1.93;1.83;;;23.90;99.90;;;;;;4973453;28;20523;-66
2021/08/19 11:53:59;;;;;;;2.13;2.03;;;24.00;99.90;;;;;;4959221;29;20471;-66
2021/08/19 11:56:27;;;;;;;2.07;1.97;;;24.00;99.90;;;;;;4958355;29;20459;-66
2021/08/19 11:59:04;;;;;;;2.00;1.90;;;24.00;99.90;;;;;;4958411;29;20506;-65
2021/08/19 12:01:31;;;;;;;1.80;1.70;;;24.20;99.90;;;;;;4958112;28;20538;-66
2021/08/19 12:03:59;;;;;;;1.70;1.70;;;24.20;99.90;;;;;;4958391;29;20455;-65
2021/08/19 12:06:28;;;;;;;4.00;1.93;;;24.30;99.90;;;;;;4958120;28;20462;-67
2021/08/19 12:08:56;;;;;;;1.87;1.77;;;24.30;99.90;;;;;;4958065;29;20459;-66
2021/08/19 12:11:25;;;;;;;4.83;1.93;;;24.50;99.90;;;;;;4958449;28;20514;-66
2021/08/19 12:13:52;;;;;;;1.73;1.63;;;24.70;99.90;;;;;;4957681;28;20486;-65
2021/08/19 12:16:21;;;;;;;1.80;1.70;;;24.90;99.90;;;;;;4957417;29;20809;-66
2021/08/19 12:19:10;;;;;;;2.40;2.30;;;25.00;99.90;;;;;;4957611;28;20878;-66
2021/08/19 12:21:39;;;;;;;2.50;2.30;;;25.10;99.90;;;;;;4961741;28;20475;-66
2021/08/19 12:24:12;;;;;;;2.10;2.00;;;25.40;99.90;;;;;;4957536;29;20451;-65
2021/08/19 12:26:39;;;;;;;1.90;1.80;;;25.70;99.90;;;;;;4957816;29;20454;-66
2021/08/19 12:29:06;;;;;;;2.23;2.10;;;25.90;99.90;;;;;;4957812;29;20550;-67
2021/08/19 12:31:45;;;;;;;2.10;1.90;;;26.00;99.90;;;;;;4957671;28;20487;-65
2021/08/19 12:34:11;;;;;;;2.30;2.10;;;26.10;99.90;;;;;;4957596;29;20482;-66
2021/08/19 12:36:40;;;;;;;1.67;1.57;;;26.00;99.90;;;;;;4957911;29;20451;-65
2021/08/19 12:39:21;;;;;;;2.43;2.23;;;26.00;99.90;;;;;;4957887;29;20452;-65
2021/08/19 12:41:49;;;;;;;2.60;2.50;;;25.90;99.90;;;;;;4957744;28;20479;-66
2021/08/19 12:44:21;;;;;;;2.33;2.23;;;25.90;99.90;;;;;;4957639;29;20602;-66
2021/08/19 12:46:49;;;;;;;2.50;2.40;;;25.70;99.90;;;;;;4957070;29;20464;-65
2021/08/19 12:49:27;;;;;;;2.00;1.90;;;25.60;99.90;;;;;;4957306;29;20464;-65
2021/08/19 12:52:24;;;;;;;2.50;2.40;;;25.50;99.90;;;;;;4957593;28;20836;-67
2021/08/19 12:55:00;;;;;;;2.20;2.10;;;25.40;99.90;;;;;;4957382;29;20455;-66
2021/08/19 12:57:38;;;;;;;2.83;2.30;;;25.10;99.90;;;;;;4956860;29;20443;-66
2021/08/19 13:00:08;;;;;;;2.10;1.90;;;25.10;99.90;;;;;;4957320;29;20447;-66
2021/08/19 13:02:35;;;;;;;2.27;2.17;;;25.10;99.90;;;;;;4956856;28;20909;-66
2021/08/19 13:05:01;;;;;;;2.37;2.27;;;25.00;99.90;;;;;;4957002;29;20972;-67
2021/08/19 13:07:29;;;;;;;2.33;2.20;;;24.90;99.90;;;;;;4957193;29;20460;-66
2021/08/19 13:09:57;;;;;;;2.27;2.17;;;25.00;99.90;;;;;;4958175;29;20462;-66
2021/08/19 13:12:24;;;;;;;2.27;2.07;;;25.00;99.90;;;;;;4957218;28;20483;-66
2021/08/19 13:14:51;;;;;;;2.10;1.90;;;25.00;99.90;;;;;;4956533;29;20530;-65
2021/08/19 13:17:18;;;;;;;2.60;2.40;;;24.80;99.90;;;;;;4956953;29;20459;-65
2021/08/19 13:19:45;;;;;;;2.53;2.27;;;24.80;99.90;;;;;;4956945;29;20482;-66
2021/08/19 13:22:13;;;;;;;2.40;2.30;;;24.90;99.90;;;;;;4956769;28;20479;-66
2021/08/19 13:24:41;;;;;;;2.43;2.33;;;25.00;99.90;;;;;;4957432;29;20455;-66
2021/08/19 13:27:09;;;;;;;2.73;2.53;;;24.90;99.90;;;;;;4955959;28;20455;-65
2021/08/19 13:29:35;;;;;;;2.93;2.27;;;24.90;99.90;;;;;;4957436;29;20471;-65
2021/08/19 13:32:02;;;;;;;2.00;1.90;;;24.70;99.90;;;;;;4957439;28;20975;-65
2021/08/19 13:34:29;;;;;;;5.80;2.27;;;24.70;99.90;;;;;;4958053;29;21002;-65
2021/08/19 13:36:55;;;;;;;3.73;2.87;;;24.70;99.90;;;;;;4957445;29;20460;-65
2021/08/19 13:39:23;;;;;;;2.83;2.63;;;24.70;99.90;;;;;;4957167;29;20458;-65
2021/08/19 13:41:51;;;;;;;3.30;2.87;;;24.70;99.90;;;;;;4956940;28;20979;-66
2021/08/19 13:44:17;;;;;;;2.03;1.90;;;24.70;99.90;;;;;;4957282;29;20455;-68
2021/08/19 13:46:44;;;;;;;2.57;2.37;;;24.90;99.90;;;;;;4957374;29;20455;-66
2021/08/19 13:49:11;;;;;;;2.30;1.90;;;25.00;99.90;;;;;;4957331;28;20460;-65
2021/08/19 13:51:38;;;;;;;2.53;2.30;;;24.80;99.90;;;;;;4956840;28;20531;-66
2021/08/19 13:54:04;;;;;;;2.63;2.53;;;24.80;99.90;;;;;;4957207;29;20479;-65
2021/08/19 13:56:32;;;;;;;2.00;1.90;;;24.80;99.90;;;;;;4956888;29;20459;-66
2021/08/19 13:59:00;;;;;;;2.37;2.17;;;24.70;99.90;;;;;;4956926;29;20455;-66
2021/08/19 14:01:27;;;;;;;2.30;2.10;;;24.80;99.90;;;;;;4956227;28;20543;-66
2021/08/19 14:03:54;;;;;;;2.10;2.00;;;24.70;99.90;;;;;;4957779;29;20452;-66
2021/08/19 14:06:21;;;;;;;2.33;2.23;;;24.60;99.90;;;;;;4957802;29;20470;-66
2021/08/19 14:08:48;;;;;;;2.57;1.70;;;24.70;99.90;;;;;;4956773;29;20460;-66
2021/08/19 14:11:15;;;;;;;2.73;2.20;;;24.70;99.90;;;;;;4956846;28;20475;-66
2021/08/19 14:13:42;;;;;;;2.23;2.07;;;24.80;99.90;;;;;;4956429;29;20479;-65
2021/08/19 14:16:10;;;;;;;4.80;2.40;;;24.90;99.90;;;;;;4956432;29;20798;-67
2021/08/19 14:18:39;;;;;;;2.00;1.90;;;24.90;99.90;;;;;;4956506;29;20455;-66
2021/08/19 14:21:06;;;;;;;2.40;2.30;;;24.80;99.90;;;;;;4956404;28;20817;-65
2021/08/19 14:23:33;;;;;;;2.20;2.00;;;24.80;99.90;;;;;;4956596;29;20451;-65
2021/08/19 14:25:59;;;;;;;4.90;2.40;;;24.90;99.90;;;;;;4956398;29;20486;-66
2021/08/19 14:28:27;;;;;;;2.30;1.87;;;25.00;99.90;;;;;;4956179;29;20464;-66
2021/08/19 14:30:53;;;;;;;2.27;2.17;;;24.90;99.90;;;;;;4956132;28;20483;-65
2021/08/19 14:33:22;;;;;;;2.30;2.17;;;24.90;99.90;;;;;;4956202;29;20991;-66
2021/08/19 14:35:48;;;;;;;2.23;2.10;;;24.90;99.90;;;;;;4956503;29;20459;-65
2021/08/19 14:38:15;;;;;;;3.23;1.87;;;24.90;99.90;;;;;;4957949;28;20464;-66
2021/08/19 14:40:42;;;;;;;2.50;2.40;;;24.90;99.90;;;;;;4960492;28;20867;-66
2021/08/19 14:43:08;;;;;;;2.80;2.00;;;24.80;99.90;;;;;;4960321;29;20458;-65
2021/08/19 14:45:36;;;;;;;2.33;2.07;;;24.70;99.90;;;;;;4959828;29;20455;-66
2021/08/19 14:48:03;;;;;;;4.50;2.00;;;24.50;99.90;;;;;;4959388;29;20943;-65
2021/08/19 14:50:32;;;;;;;2.43;2.10;;;24.40;99.90;;;;;;4960174;28;20455;-66
2021/08/19 14:52:59;;;;;;;1.70;1.60;;;24.30;99.90;;;;;;4959939;29;20455;-66
2021/08/19 14:55:25;;;;;;;3.10;2.00;;;24.20;99.90;;;;;;4959139;29;20990;-66
2021/08/19 14:57:52;;;;;;;2.70;2.00;;;24.10;99.90;;;;;;4959525;29;20456;-65
2021/08/19 15:00:19;;;;;;;2.20;1.90;;;24.00;99.90;;;;;;4958966;28;20462;-65
2021/08/19 15:02:45;;;;;;;2.30;2.20;;;23.90;99.90;;;;;;4959499;29;20447;-65
2021/08/19 15:05:13;;;;;;;1.70;1.60;;;23.90;99.90;;;;;;4959721;29;20455;-65
2021/08/19 15:07:41;;;;;;;2.07;1.63;;;23.90;99.90;;;;;;4959296;29;20459;-65
2021/08/19 15:10:09;;;;;;;1.70;1.60;;;23.90;99.90;;;;;;4959343;29;20455;-66
2021/08/19 15:12:35;;;;;;;2.03;1.87;;;23.80;99.90;;;;;;4959213;28;20475;-65
2021/08/19 15:15:02;;;;;;;1.87;1.77;;;23.70;99.90;;;;;;4959976;29;20487;-65
2021/08/19 15:17:30;;;;;;;2.33;1.87;;;23.70;99.90;;;;;;4959106;29;20484;-65
2021/08/19 15:19:58;;;;;;;2.00;1.80;;;23.60;99.90;;;;;;4959240;29;20510;-65
2021/08/19 15:22:25;;;;;;;1.93;1.70;;;23.60;99.90;;;;;;4958967;28;20483;-65
2021/08/19 15:24:54;;;;;;;3.90;1.50;;;23.50;99.90;;;;;;4959174;29;20479;-66
2021/08/19 15:27:21;;;;;;;1.83;1.70;;;23.40;99.90;;;;;;4959077;29;20977;-66
2021/08/19 15:29:48;;;;;;;1.90;1.80;;;23.30;99.90;;;;;;4958984;29;21010;-65
2021/08/19 15:32:16;;;;;;;1.83;1.73;;;23.20;99.90;;;;;;4958974;28;20483;-66
2021/08/19 15:34:43;;;;;;;1.97;1.87;;;23.20;99.90;;;;;;4958844;28;20520;-67
2021/08/19 15:37:12;;;;;;;1.83;1.70;;;23.20;99.90;;;;;;4958606;29;20480;-66
2021/08/19 15:39:39;;;;;;;2.10;1.50;;;23.10;99.90;;;;;;4958623;29;20795;-65
2021/08/19 15:42:09;;;;;;;2.13;1.80;;;23.20;99.90;;;;;;4958797;28;20482;-65
2021/08/19 15:44:36;;;;;;;1.80;1.70;;;23.10;99.90;;;;;;4959015;28;20475;-65
2021/08/19 15:47:03;;;;;;;1.50;1.43;;;23.10;99.90;;;;;;4958639;29;20455;-65
2021/08/19 15:49:30;;;;;;;2.20;1.70;;;23.10;99.90;;;;;;4957496;28;20459;-66
2021/08/19 15:51:57;;;;;;;3.70;1.80;;;23.10;99.90;;;;;;4958331;28;20812;-65
2021/08/19 15:54:23;;;;;;;2.00;1.80;;;23.10;99.90;;;;;;4958502;29;20574;-65
2021/08/19 15:56:50;;;;;;;3.30;1.70;;;23.10;99.90;;;;;;4958540;29;20460;-65
2021/08/19 15:59:18;;;;;;;2.03;1.70;;;23.10;99.90;;;;;;4958662;29;20467;-65
2021/08/19 16:01:45;;;;;;;2.20;1.90;;;23.10;99.90;;;;;;4958053;28;20498;-65
2021/08/19 16:04:12;;;;;;;1.80;1.70;;;23.10;99.90;;;;;;4958558;29;20447;-65
2021/08/19 16:06:39;;;;;;;2.00;1.70;;;23.10;99.90;;;;;;4958741;29;20459;-64
2021/08/19 16:09:06;;;;;;;1.67;1.57;;;23.10;99.90;;;;;;4959014;29;20459;-65
2021/08/19 16:11:33;;;;;;;1.70;1.63;;;23.10;99.90;;;;;;4958985;28;20484;-65
2021/08/19 16:14:00;;;;;;;1.57;1.53;;;23.10;99.90;;;;;;4959772;29;20538;-65
2021/08/19 16:16:28;;;;;;;1.60;1.50;;;23.10;99.90;;;;;;4960554;29;20466;-66
2021/08/19 16:18:54;;;;;;;1.20;1.20;;;23.10;99.90;;;;;;4958598;29;20964;-65
2021/08/19 16:21:21;;;;;;;1.50;1.43;;;23.20;99.90;;;;;;4957516;28;20475;-65
2021/08/19 16:23:48;;;;;;;1.53;1.40;;;23.20;99.90;;;;;;4957959;29;20467;-66
2021/08/19 16:26:15;;;;;;;1.40;1.40;;;23.20;99.90;;;;;;4958394;29;20463;-65
2021/08/19 16:28:41;;;;;;;2.40;1.90;;;23.20;99.90;;;;;;4958322;29;20466;-66
2021/08/19 16:31:09;;;;;;;1.80;1.60;;;23.10;99.90;;;;;;4958082;28;20475;-65
2021/08/19 16:33:37;;;;;;;2.30;2.07;;;23.10;99.90;;;;;;4958143;29;20470;-65
2021/08/19 16:36:05;;;;;;;1.80;1.70;;;23.10;99.90;;;;;;4958094;29;20459;-65
2021/08/19 16:38:31;;;;;;;2.00;1.90;;;23.00;99.90;;;;;;4958078;28;20487;-65
2021/08/19 16:40:58;;;;;;;2.70;2.53;;;23.10;99.90;;;;;;4957817;28;20483;-66
2021/08/19 16:43:25;;;;;;;3.23;2.60;;;23.20;99.90;;;;;;4957580;29;20462;-65
2021/08/19 16:45:52;;;;;;;3.77;2.27;;;23.20;99.90;;;;;;4957720;29;20462;-65
2021/08/19 16:48:18;;;;;;;3.23;2.93;;;23.20;99.90;;;;;;4957737;29;20456;-65
2021/08/19 16:50:46;;;;;;;3.30;2.30;;;23.20;99.90;;;;;;4957552;28;20486;-65
2021/08/19 16:53:13;;;;;;;2.00;1.80;;;23.20;99.90;;;;;;4957597;29;20464;-66